Time;durP1;ratioP1;P1;durP2;ratioP2;P2;SDS_P1;SDS_P2;PMS_P1;PMS_P2;Temp;Humidity;BMP_temperature;BMP_pressure;BME280_temperature;BME280_humidity;BME280_pressure;Samples;Min_cycle;Max_cycle;Signal;HPM_P1;HPM_P2
2022/05/10 00:00:35;;;;;;;;;;;;;;;20.29;53.31;100262.31;2083502;28;19926;-46
2022/05/10 00:01:37;;;;;;;;;;;;;;;20.29;53.28;100254.13;2085098;28;20357;-46
2022/05/10 00:02:37;;;;;;;;;;;;;;;20.30;53.31;100272.25;2072239;28;20428;-47
2022/05/10 00:03:38;;;;;;;;;;;;;;;20.29;53.54;100259.59;2076261;28;19971;-44
2022/05/10 00:04:39;;;;;;;;;;;;;;;20.29;53.49;100265.06;2077839;28;20342;-47
2022/05/10 00:05:40;;;;;;;;;;;;;;;20.30;53.34;100264.03;2076133;28;20011;-45
2022/05/10 00:06:45;;;;;;;;;;;;;;;20.28;53.58;100257.84;2076641;28;19927;-46
2022/05/10 00:07:46;;;;;;;;;;;;;;;20.29;53.41;100259.59;2076664;28;19905;-45
2022/05/10 00:08:46;;;;;;;;;;;;;;;20.29;53.63;100262.31;2083649;28;19997;-45
2022/05/10 00:09:47;;;;;;;;;;;;;;;20.26;53.52;100254.41;2082652;28;19939;-45
2022/05/10 00:10:47;;;;;;;;;;;;;;;20.27;53.34;100261.63;2084994;28;19989;-45
2022/05/10 00:11:48;;;;;;;;;;;;;;;20.26;53.47;100255.28;2083942;28;19916;-44
2022/05/10 00:12:49;;;;;;;;;;;;;;;20.29;53.55;100259.59;2086664;28;19909;-47
2022/05/10 00:13:49;;;;;;;;;;;;;;;20.27;53.67;100257.00;2083649;28;19916;-44
2022/05/10 00:14:49;;;;;;;;;;;;;;;20.27;53.54;100250.66;2084598;28;19927;-44
2022/05/10 00:15:50;;;;;;;;;;;;;;;20.27;53.46;100253.41;2084408;28;19920;-45
2022/05/10 00:16:53;;;;;;;;;;;;;;;20.26;53.63;100248.91;2075352;28;20253;-44
2022/05/10 00:17:53;;;;;;;;;;;;;;;20.28;53.50;100249.63;2075574;28;19995;-46
2022/05/10 00:18:54;;;;;;;;;;;;;;;20.28;53.58;100246.91;2084195;28;19924;-44
2022/05/10 00:19:55;;;;;;;;;;;;;;;20.27;53.48;100246.03;2084262;28;20352;-46
2022/05/10 00:20:55;;;;;;;;;;;;;;;20.28;53.66;100241.44;2077121;28;19944;-46
2022/05/10 00:21:57;;;;;;;;;;;;;;;20.26;53.52;100244.34;2067912;28;19956;-45
2022/05/10 00:22:57;;;;;;;;;;;;;;;20.27;53.68;100240.56;2075414;28;20315;-49
2022/05/10 00:23:57;;;;;;;;;;;;;;;20.28;53.53;100244.16;2084713;28;19927;-46
2022/05/10 00:24:58;;;;;;;;;;;;;;;20.28;53.49;100246.91;2084950;28;19923;-47
2022/05/10 00:25:58;;;;;;;;;;;;;;;20.27;53.62;100246.03;2084757;28;19923;-45
2022/05/10 00:26:59;;;;;;;;;;;;;;;20.27;53.68;100242.44;2084520;28;19924;-44
2022/05/10 00:28:00;;;;;;;;;;;;;;;20.27;53.74;100235.09;2085952;28;19916;-46
2022/05/10 00:29:03;;;;;;;;;;;;;;;20.27;53.59;100240.56;2083529;28;19920;-48
2022/05/10 00:30:04;;;;;;;;;;;;;;;20.28;53.52;100235.94;2083412;28;19916;-44
2022/05/10 00:31:04;;;;;;;;;;;;;;;20.27;53.68;100235.09;2083828;28;19920;-44
2022/05/10 00:32:05;;;;;;;;;;;;;;;20.28;53.79;100235.94;2084348;28;19920;-44
2022/05/10 00:33:06;;;;;;;;;;;;;;;20.28;53.61;100230.47;2086208;28;20541;-46
2022/05/10 00:34:06;;;;;;;;;;;;;;;20.27;53.61;100240.56;2085323;28;19923;-45
2022/05/10 00:35:10;;;;;;;;;;;;;;;20.28;53.68;100230.47;2080880;28;19943;-46
2022/05/10 00:36:12;;;;;;;;;;;;;;;20.26;53.75;100232.50;2084015;28;20158;-46
2022/05/10 00:37:13;;;;;;;;;;;;;;;20.25;53.64;100230.78;2083502;28;19920;-46
2022/05/10 00:38:14;;;;;;;;;;;;;;;20.26;53.88;100227.03;2085105;28;19916;-45
2022/05/10 00:39:14;;;;;;;;;;;;;;;20.25;53.87;100231.66;2083256;28;20227;-45
2022/05/10 00:40:16;;;;;;;;;;;;;;;20.25;53.92;100219.84;2082505;28;19909;-44
2022/05/10 00:41:29;;;;;;;;;;;;;;;20.24;53.91;100227.19;2084237;28;19916;-45
2022/05/10 00:42:47;;;;;;;;;;;;;;;20.26;53.91;100221.56;2079343;28;19952;-46
2022/05/10 00:43:52;;;;;;;;;;;;;;;20.24;53.78;100218.13;2084095;28;19923;-46
2022/05/10 00:45:05;;;;;;;;;;;;;;;20.24;53.87;100224.47;2083470;28;19912;-45
2022/05/10 00:46:14;;;;;;;;;;;;;;;20.25;54.02;100219.84;2076424;28;19951;-45
2022/05/10 00:47:20;;;;;;;;;;;;;;;20.24;53.84;100219.00;2073539;28;19930;-44
2022/05/10 00:48:23;;;;;;;;;;;;;;;20.24;53.96;100223.59;2083563;28;20287;-44
2022/05/10 00:49:31;;;;;;;;;;;;;;;20.23;53.98;100222.72;2083847;28;20156;-45
2022/05/10 00:50:33;;;;;;;;;;;;;;;20.23;54.02;100221.88;2084412;28;19921;-45
2022/05/10 00:51:33;;;;;;;;;;;;;;;20.23;54.04;100221.88;2084819;28;19916;-46
2022/05/10 00:52:42;;;;;;;;;;;;;;;20.24;53.77;100220.88;2076611;28;19983;-44
2022/05/10 00:53:58;;;;;;;;;;;;;;;20.23;54.05;100221.88;2076669;28;19932;-44
2022/05/10 00:55:16;;;;;;;;;;;;;;;20.23;54.01;100219.13;2077566;28;19924;-45
2022/05/10 00:56:24;;;;;;;;;;;;;;;20.24;54.00;100220.88;2084348;28;19921;-45
2022/05/10 00:57:31;;;;;;;;;;;;;;;20.24;53.80;100220.88;2083326;28;19912;-44
2022/05/10 00:58:42;;;;;;;;;;;;;;;20.24;53.92;100223.59;2084614;28;20639;-45
2022/05/10 00:59:45;;;;;;;;;;;;;;;20.24;53.94;100212.66;2082157;28;19976;-46
2022/05/10 01:00:46;;;;;;;;;;;;;;;20.24;54.03;100220.88;2083788;28;19920;-45
2022/05/10 01:01:49;;;;;;;;;;;;;;;20.24;53.85;100212.66;2076256;28;20045;-44
2022/05/10 01:02:57;;;;;;;;;;;;;;;20.23;53.90;100211.78;2074866;28;20007;-47
2022/05/10 01:04:07;;;;;;;;;;;;;;;20.23;53.97;100211.78;2084312;28;19908;-45
2022/05/10 01:05:28;;;;;;;;;;;;;;;20.23;54.10;100203.56;2084251;28;19916;-44
2022/05/10 01:06:31;;;;;;;;;;;;;;;20.23;53.92;100213.66;2070065;28;20029;-45
2022/05/10 01:07:35;;;;;;;;;;;;;;;20.23;53.94;100205.44;2083831;28;19943;-45
2022/05/10 01:08:41;;;;;;;;;;;;;;;20.23;54.05;100211.78;2075532;28;19920;-48
2022/05/10 01:09:43;;;;;;;;;;;;;;;20.23;54.06;100210.91;2066449;28;19928;-45
2022/05/10 01:10:53;;;;;;;;;;;;;;;20.23;53.94;100210.91;2067512;28;19916;-44
2022/05/10 01:11:58;;;;;;;;;;;;;;;20.23;54.10;100210.91;2081859;28;19999;-45
2022/05/10 01:13:13;;;;;;;;;;;;;;;20.21;54.20;100202.88;2090696;28;20015;-46
2022/05/10 01:14:17;;;;;;;;;;;;;;;20.22;54.24;100209.22;2083525;28;20420;-45
2022/05/10 01:15:24;;;;;;;;;;;;;;;20.22;54.21;100211.94;2080071;28;20045;-45
2022/05/10 01:16:25;;;;;;;;;;;;;;;20.21;54.24;100207.47;2084498;28;20325;-45
2022/05/10 01:17:25;;;;;;;;;;;;;;;20.21;54.14;100207.47;2082863;28;20371;-46
2022/05/10 01:18:25;;;;;;;;;;;;;;;20.20;54.08;100206.63;2085093;28;19925;-44
2022/05/10 01:19:26;;;;;;;;;;;;;;;20.21;53.92;100202.00;2081529;28;20494;-46
2022/05/10 01:20:36;;;;;;;;;;;;;;;20.21;54.03;100207.47;2084395;28;19921;-45
2022/05/10 01:21:58;;;;;;;;;;;;;;;20.20;53.99;100203.03;2077636;28;20031;-45
2022/05/10 01:23:01;;;;;;;;;;;;;;;20.21;54.14;100204.72;2077297;28;20083;-45
2022/05/10 01:24:13;;;;;;;;;;;;;;;20.20;54.04;100203.88;2084694;28;20235;-46
2022/05/10 01:25:32;;;;;;;;;;;;;;;20.21;53.96;100210.22;2084308;28;19923;-45
2022/05/10 01:26:42;;;;;;;;;;;;;;;20.20;54.11;100200.28;2084816;28;19916;-45
2022/05/10 01:27:51;;;;;;;;;;;;;;;20.20;54.07;100203.03;2084648;28;20022;-47
2022/05/10 01:28:56;;;;;;;;;;;;;;;20.20;54.01;100205.75;2074615;28;19963;-45
2022/05/10 01:30:06;;;;;;;;;;;;;;;20.21;53.98;100207.47;2076241;28;20349;-45
2022/05/10 01:31:12;;;;;;;;;;;;;;;20.20;53.98;100205.75;2082576;28;19956;-47
2022/05/10 01:33:37;;;;;;;;;;;;;;;20.21;54.11;100196.53;2083708;28;20312;-48
2022/05/10 01:34:38;;;;;;;;;;;;;;;20.20;54.29;100206.63;2083326;28;19964;-47
2022/05/10 01:35:41;;;;;;;;;;;;;;;20.21;54.08;100202.00;2073767;28;19912;-45
2022/05/10 01:36:45;;;;;;;;;;;;;;;20.20;54.04;100194.81;2077507;28;19916;-45
2022/05/10 01:37:47;;;;;;;;;;;;;;;20.21;54.22;100196.53;2083787;28;19917;-46
2022/05/10 01:38:51;;;;;;;;;;;;;;;20.20;54.06;100200.28;2084442;28;19976;-44
2022/05/10 01:39:51;;;;;;;;;;;;;;;20.21;54.11;100196.53;2083373;28;20694;-48
2022/05/10 01:40:53;;;;;;;;;;;;;;;20.21;54.29;100196.53;2085566;28;20129;-44
2022/05/10 01:41:53;;;;;;;;;;;;;;;20.20;54.11;100194.81;2082437;28;19920;-44
2022/05/10 01:43:03;;;;;;;;;;;;;;;20.20;54.24;100194.81;2083709;28;19920;-47
2022/05/10 01:44:04;;;;;;;;;;;;;;;20.20;54.07;100200.28;2081897;28;19916;-45
2022/05/10 01:45:10;;;;;;;;;;;;;;;20.20;54.19;100197.56;2079141;28;19928;-45
2022/05/10 01:46:12;;;;;;;;;;;;;;;20.19;54.13;100193.97;2083033;28;19915;-45
2022/05/10 01:47:15;;;;;;;;;;;;;;;20.19;54.29;100201.31;2084463;28;20183;-46
2022/05/10 01:48:17;;;;;;;;;;;;;;;20.20;54.39;100200.28;2083326;28;20251;-46
2022/05/10 01:49:24;;;;;;;;;;;;;;;20.18;54.36;100194.09;2083232;28;20015;-45
2022/05/10 01:50:42;;;;;;;;;;;;;;;20.19;54.30;100193.09;2083280;28;19916;-47
2022/05/10 01:51:53;;;;;;;;;;;;;;;20.19;54.23;100193.09;2081420;28;20417;-45
2022/05/10 01:53:01;;;;;;;;;;;;;;;20.18;54.34;100191.38;2083012;28;19956;-44
2022/05/10 01:54:01;;;;;;;;;;;;;;;20.17;54.23;100184.19;2083128;28;20317;-45
2022/05/10 01:55:02;;;;;;;;;;;;;;;20.18;54.30;100185.88;2084993;28;19966;-44
2022/05/10 01:56:16;;;;;;;;;;;;;;;20.17;54.36;100190.50;2083149;28;19916;-45
2022/05/10 01:57:17;;;;;;;;;;;;;;;20.16;54.43;100183.28;2083351;28;19925;-45
2022/05/10 01:58:25;;;;;;;;;;;;;;;20.16;54.33;100185.19;2084194;28;20373;-47
2022/05/10 01:59:25;;;;;;;;;;;;;;;20.17;54.50;100184.19;2081111;28;19913;-45
2022/05/10 02:00:27;;;;;;;;;;;;;;;20.16;54.44;100179.72;2080883;28;19917;-47
2022/05/10 02:01:36;;;;;;;;;;;;;;;20.16;54.46;100176.97;2083065;28;19986;-45
2022/05/10 02:02:39;;;;;;;;;;;;;;;20.15;54.51;100178.84;2084098;28;19923;-45
2022/05/10 02:03:51;;;;;;;;;;;;;;;20.15;54.29;100178.84;2083946;28;19994;-45
2022/05/10 02:04:55;;;;;;;;;;;;;;;20.16;54.52;100182.44;2077775;28;19917;-47
2022/05/10 02:06:16;;;;;;;;;;;;;;;20.14;54.43;100174.41;2077291;28;19962;-44
2022/05/10 02:07:19;;;;;;;;;;;;;;;20.16;54.31;100176.97;2075960;28;19924;-46
2022/05/10 02:08:52;;;;;;;;;;;;;;;20.15;54.45;100170.66;2083955;28;20068;-45
2022/05/10 02:10:04;;;;;;;;;;;;;;;20.15;54.46;100176.13;2055696;28;19965;-45
2022/05/10 02:11:12;;;;;;;;;;;;;;;20.16;54.33;100174.22;2081770;28;20367;-47
2022/05/10 02:12:15;;;;;;;;;;;;;;;20.16;54.32;100179.72;2073974;28;19916;-44
2022/05/10 02:13:28;;;;;;;;;;;;;;;20.15;54.50;100181.59;2072039;28;19917;-45
2022/05/10 02:14:41;;;;;;;;;;;;;;;20.15;54.53;100176.13;2084916;28;19912;-44
2022/05/10 02:15:57;;;;;;;;;;;;;;;20.16;54.34;100182.44;2083068;28;20266;-44
2022/05/10 02:17:04;;;;;;;;;;;;;;;20.16;54.71;100177.81;2076612;28;20199;-44
2022/05/10 02:18:14;;;;;;;;;;;;;;;20.16;54.50;100179.72;2075969;28;20396;-44
2022/05/10 02:19:30;;;;;;;;;;;;;;;20.15;54.52;100186.22;2083476;28;19913;-44
2022/05/10 02:20:34;;;;;;;;;;;;;;;20.16;54.50;100182.44;2079736;28;19917;-45
2022/05/10 02:21:39;;;;;;;;;;;;;;;20.16;54.36;100179.72;2081442;28;19934;-44
2022/05/10 02:22:42;;;;;;;;;;;;;;;20.16;54.45;100176.97;2084069;28;19917;-45
2022/05/10 02:23:46;;;;;;;;;;;;;;;20.13;54.63;100184.47;2083442;28;19913;-44
2022/05/10 02:24:53;;;;;;;;;;;;;;;20.15;54.57;100180.75;2083825;28;20383;-44
2022/05/10 02:26:00;;;;;;;;;;;;;;;20.14;54.54;100182.63;2081965;28;20049;-44
2022/05/10 02:27:03;;;;;;;;;;;;;;;20.15;54.81;100178.00;2080991;28;20007;-47
2022/05/10 02:28:18;;;;;;;;;;;;;;;20.14;54.68;100185.34;2083751;28;20753;-45
2022/05/10 02:29:45;;;;;;;;;;;;;;;20.13;54.70;100178.13;2083757;28;20830;-45
2022/05/10 02:30:45;;;;;;;;;;;;;;;20.12;54.66;100177.28;2071288;28;20247;-44
2022/05/10 02:33:09;;;;;;;;;;;;;;;20.11;54.60;100183.78;2082933;28;19909;-44
2022/05/10 02:34:09;;;;;;;;;;;;;;;20.12;54.73;100187.38;2080419;28;19986;-44
2022/05/10 02:35:11;;;;;;;;;;;;;;;20.12;54.83;100185.50;2083191;28;19970;-44
2022/05/10 02:36:12;;;;;;;;;;;;;;;20.12;54.69;100184.66;2083881;28;19920;-44
2022/05/10 02:37:13;;;;;;;;;;;;;;;20.11;54.54;100180.16;2083221;28;19948;-45
2022/05/10 02:38:15;;;;;;;;;;;;;;;20.11;54.53;100181.06;2083458;28;19955;-44
2022/05/10 02:39:16;;;;;;;;;;;;;;;20.10;54.72;100184.78;2083138;28;20058;-46
2022/05/10 02:40:17;;;;;;;;;;;;;;;20.11;54.63;100181.06;2083495;28;20041;-44
2022/05/10 02:41:19;;;;;;;;;;;;;;;20.11;54.64;100186.53;2084066;28;19991;-45
2022/05/10 02:42:21;;;;;;;;;;;;;;;20.11;54.52;100183.78;2082875;28;19932;-44
2022/05/10 02:43:24;;;;;;;;;;;;;;;20.11;54.79;100181.06;2082169;28;19924;-45
2022/05/10 02:44:24;;;;;;;;;;;;;;;20.12;54.50;100188.22;2079978;28;19960;-44
2022/05/10 02:45:25;;;;;;;;;;;;;;;20.12;54.48;100180.03;2083767;28;19917;-45
2022/05/10 02:46:26;;;;;;;;;;;;;;;20.12;54.47;100182.75;2083384;28;20322;-45
2022/05/10 02:47:30;;;;;;;;;;;;;;;20.11;54.48;100181.06;2070492;28;19920;-45
2022/05/10 02:48:33;;;;;;;;;;;;;;;20.11;54.69;100186.53;2074409;28;19921;-45
2022/05/10 02:49:34;;;;;;;;;;;;;;;20.12;54.52;100185.50;2084338;28;20003;-45
2022/05/10 02:50:35;;;;;;;;;;;;;;;20.11;54.51;100178.31;2082876;28;19920;-44
2022/05/10 02:51:35;;;;;;;;;;;;;;;20.11;54.59;100178.31;2083222;28;20307;-46
2022/05/10 02:52:36;;;;;;;;;;;;;;;20.11;54.62;100183.78;2082145;28;20000;-46
2022/05/10 02:53:36;;;;;;;;;;;;;;;20.12;54.75;100182.75;2077958;28;19908;-44
2022/05/10 02:54:36;;;;;;;;;;;;;;;20.12;54.68;100181.91;2082984;28;19916;-45
2022/05/10 02:55:42;;;;;;;;;;;;;;;20.11;54.64;100186.53;2083429;28;19923;-46
2022/05/10 02:56:43;;;;;;;;;;;;;;;20.11;54.73;100185.63;2081325;28;20045;-47
2022/05/10 02:57:45;;;;;;;;;;;;;;;20.11;54.87;100186.53;2085411;28;20353;-45
2022/05/10 02:58:51;;;;;;;;;;;;;;;20.10;54.73;100187.53;2082485;28;19916;-46
2022/05/10 02:59:53;;;;;;;;;;;;;;;20.11;54.64;100185.63;2083154;28;19970;-44
2022/05/10 03:00:57;;;;;;;;;;;;;;;20.11;54.68;100186.53;2076459;28;19963;-44
2022/05/10 03:02:17;;;;;;;;;;;;;;;20.10;54.82;100184.78;2081907;28;19920;-48
2022/05/10 03:03:20;;;;;;;;;;;;;;;20.09;54.96;100183.09;2079261;28;19927;-44
2022/05/10 03:04:21;;;;;;;;;;;;;;;20.09;54.89;100183.09;2083560;28;19951;-44
2022/05/10 03:05:22;;;;;;;;;;;;;;;20.10;54.81;100183.94;2083188;28;19916;-45
2022/05/10 03:06:23;;;;;;;;;;;;;;;20.09;54.72;100188.56;2084650;28;19923;-44
2022/05/10 03:07:25;;;;;;;;;;;;;;;20.08;54.77;100181.34;2084266;28;20303;-45
2022/05/10 03:08:25;;;;;;;;;;;;;;;20.08;54.85;100186.81;2083002;28;19912;-47
2022/05/10 03:09:25;;;;;;;;;;;;;;;20.08;54.93;100192.28;2084518;28;19920;-44
2022/05/10 03:10:26;;;;;;;;;;;;;;;20.10;54.75;100194.88;2084998;28;19923;-45
2022/05/10 03:11:26;;;;;;;;;;;;;;;20.09;54.91;100188.56;2086591;28;19916;-45
2022/05/10 03:12:27;;;;;;;;;;;;;;;20.08;54.81;100189.53;2085339;28;19916;-45
2022/05/10 03:13:27;;;;;;;;;;;;;;;20.08;54.97;100185.97;2084122;28;19916;-44
2022/05/10 03:14:28;;;;;;;;;;;;;;;20.08;54.90;100195.03;2082084;28;19917;-44
2022/05/10 03:15:28;;;;;;;;;;;;;;;20.08;54.71;100192.28;2085255;28;20305;-43
2022/05/10 03:16:29;;;;;;;;;;;;;;;20.10;54.75;100203.09;2083038;28;19912;-44
2022/05/10 03:17:29;;;;;;;;;;;;;;;20.10;54.88;100193.00;2086905;28;20015;-44
2022/05/10 03:18:29;;;;;;;;;;;;;;;20.08;54.74;100195.03;2083503;28;20457;-44
2022/05/10 03:19:30;;;;;;;;;;;;;;;20.08;54.82;100194.16;2086122;28;19986;-44
2022/05/10 03:20:30;;;;;;;;;;;;;;;20.08;54.72;100197.75;2086620;28;19916;-46
2022/05/10 03:21:34;;;;;;;;;;;;;;;20.09;54.75;100194.03;2077044;28;20166;-45
2022/05/10 03:22:35;;;;;;;;;;;;;;;20.09;54.95;100199.50;2075555;28;19928;-45
2022/05/10 03:23:35;;;;;;;;;;;;;;;20.08;54.97;100197.75;2085448;28;20341;-47
2022/05/10 03:24:35;;;;;;;;;;;;;;;20.09;54.75;100199.50;2085204;28;19974;-47
2022/05/10 03:25:36;;;;;;;;;;;;;;;20.08;54.90;100200.50;2085490;28;19912;-43
2022/05/10 03:26:37;;;;;;;;;;;;;;;20.08;54.81;100197.75;2083906;28;19913;-46
2022/05/10 03:27:37;;;;;;;;;;;;;;;20.08;54.75;100197.75;2085283;28;19924;-45
2022/05/10 03:28:37;;;;;;;;;;;;;;;20.08;54.77;100197.75;2085647;28;19916;-45
2022/05/10 03:29:39;;;;;;;;;;;;;;;20.07;54.87;100201.53;2084013;28;19909;-44
2022/05/10 03:30:40;;;;;;;;;;;;;;;20.07;54.83;100198.78;2086452;28;20042;-44
2022/05/10 03:31:40;;;;;;;;;;;;;;;20.08;54.97;100197.75;2085426;28;19919;-46
2022/05/10 03:32:41;;;;;;;;;;;;;;;20.08;54.92;100197.75;2075878;28;19972;-44
2022/05/10 03:33:41;;;;;;;;;;;;;;;20.07;54.87;100198.78;2074591;28;20382;-44
2022/05/10 03:34:54;;;;;;;;;;;;;;;20.07;55.10;100198.78;2085429;28;19917;-46
2022/05/10 03:35:54;;;;;;;;;;;;;;;20.07;55.06;100201.53;2084717;28;20471;-46
2022/05/10 03:36:54;;;;;;;;;;;;;;;20.08;54.97;100202.38;2084176;28;19963;-46
2022/05/10 03:37:54;;;;;;;;;;;;;;;20.07;54.98;100207.00;2085629;28;20417;-45
2022/05/10 03:38:55;;;;;;;;;;;;;;;20.06;55.15;100199.81;2076038;28;19909;-46
2022/05/10 03:39:56;;;;;;;;;;;;;;;20.06;54.94;100199.81;2076501;28;19947;-45
2022/05/10 03:40:56;;;;;;;;;;;;;;;20.06;55.11;100202.56;2085108;28;20238;-44
2022/05/10 03:41:56;;;;;;;;;;;;;;;20.06;55.16;100197.06;2084151;28;19927;-46
2022/05/10 03:42:57;;;;;;;;;;;;;;;20.05;54.99;100203.53;2084772;28;19921;-45
2022/05/10 03:43:57;;;;;;;;;;;;;;;20.05;55.00;100198.06;2083981;28;20435;-48
2022/05/10 03:44:58;;;;;;;;;;;;;;;20.05;55.11;100203.53;2082250;28;20038;-44
2022/05/10 03:46:04;;;;;;;;;;;;;;;20.05;55.06;100200.81;2074084;28;19916;-45
2022/05/10 03:47:05;;;;;;;;;;;;;;;20.05;54.94;100200.81;2076323;28;20713;-45
2022/05/10 03:48:05;;;;;;;;;;;;;;;20.05;55.16;100198.06;2085420;28;19916;-49
2022/05/10 03:49:06;;;;;;;;;;;;;;;20.04;55.12;100200.94;2085386;28;19916;-45
2022/05/10 03:50:07;;;;;;;;;;;;;;;20.04;55.01;100199.09;2084728;28;19962;-45
2022/05/10 03:51:08;;;;;;;;;;;;;;;20.04;55.10;100195.47;2079646;28;19920;-45
2022/05/10 03:52:08;;;;;;;;;;;;;;;20.04;55.12;100196.38;2085072;28;19916;-48
2022/05/10 03:53:08;;;;;;;;;;;;;;;20.05;55.02;100197.22;2084476;28;19920;-46
2022/05/10 03:54:08;;;;;;;;;;;;;;;20.05;54.99;100191.75;2084103;28;19909;-45
2022/05/10 03:55:12;;;;;;;;;;;;;;;20.04;54.93;100193.63;2084153;28;19908;-45
2022/05/10 03:56:13;;;;;;;;;;;;;;;20.06;55.04;100193.44;2076810;28;20211;-44
2022/05/10 03:57:13;;;;;;;;;;;;;;;20.05;55.04;100198.06;2076767;28;20194;-44
2022/05/10 03:58:14;;;;;;;;;;;;;;;20.06;54.95;100198.94;2083328;28;20337;-45
2022/05/10 03:59:14;;;;;;;;;;;;;;;20.05;55.06;100200.81;2085086;28;19923;-47
2022/05/10 04:00:16;;;;;;;;;;;;;;;20.05;55.11;100194.47;2087789;28;20328;-45
2022/05/10 04:01:19;;;;;;;;;;;;;;;20.05;54.96;100189.88;2087333;28;19924;-44
2022/05/10 04:02:19;;;;;;;;;;;;;;;20.05;55.02;100198.06;2085740;28;20302;-45
2022/05/10 04:03:20;;;;;;;;;;;;;;;20.04;55.10;100195.47;2083369;28;19943;-44
2022/05/10 04:04:20;;;;;;;;;;;;;;;20.05;55.06;100192.59;2085399;28;20378;-45
2022/05/10 04:05:20;;;;;;;;;;;;;;;20.05;55.04;100198.06;2084916;28;19917;-45
2022/05/10 04:06:21;;;;;;;;;;;;;;;20.04;55.19;100196.38;2087824;28;20684;-46
2022/05/10 04:07:21;;;;;;;;;;;;;;;20.04;55.13;100196.38;2084271;28;19917;-46
2022/05/10 04:08:23;;;;;;;;;;;;;;;20.04;55.15;100193.63;2084722;28;19927;-45
2022/05/10 04:09:24;;;;;;;;;;;;;;;20.04;54.99;100199.09;2086055;28;20652;-46
2022/05/10 04:10:24;;;;;;;;;;;;;;;20.03;55.09;100200.09;2075692;28;19912;-44
2022/05/10 04:11:24;;;;;;;;;;;;;;;20.04;55.18;100196.38;2078977;28;19991;-44
2022/05/10 04:12:25;;;;;;;;;;;;;;;20.03;55.13;100189.16;2073484;28;20408;-45
2022/05/10 04:13:25;;;;;;;;;;;;;;;20.02;55.22;100198.38;2077822;28;20417;-45
2022/05/10 04:14:26;;;;;;;;;;;;;;;20.02;55.22;100187.44;2084371;28;20030;-43
2022/05/10 04:15:26;;;;;;;;;;;;;;;20.03;55.13;100200.09;2084278;28;19916;-44
2022/05/10 04:16:26;;;;;;;;;;;;;;;20.03;55.17;100191.03;2084947;28;19921;-46
2022/05/10 04:17:27;;;;;;;;;;;;;;;20.01;55.11;100185.69;2085514;28;19955;-44
2022/05/10 04:18:27;;;;;;;;;;;;;;;20.02;55.19;100194.81;2083801;28;20341;-44
2022/05/10 04:19:28;;;;;;;;;;;;;;;20.02;55.34;100187.44;2086187;28;20309;-46
2022/05/10 04:20:28;;;;;;;;;;;;;;;20.02;55.26;100198.38;2084045;28;19955;-45
2022/05/10 04:21:28;;;;;;;;;;;;;;;20.02;55.33;100189.31;2085066;28;20295;-45
2022/05/10 04:22:29;;;;;;;;;;;;;;;20.01;55.40;100184.84;2083849;28;20078;-45
2022/05/10 04:23:29;;;;;;;;;;;;;;;20.01;55.32;100182.97;2082383;28;19924;-45
2022/05/10 04:24:29;;;;;;;;;;;;;;;20.02;55.25;100187.44;2083305;28;20290;-45
2022/05/10 04:25:30;;;;;;;;;;;;;;;20.01;55.26;100177.50;2083061;28;19923;-45
2022/05/10 04:26:30;;;;;;;;;;;;;;;20.01;55.30;100193.06;2084025;28;19981;-45
2022/05/10 04:27:30;;;;;;;;;;;;;;;20.01;55.28;100185.69;2085378;28;19909;-45
2022/05/10 04:28:31;;;;;;;;;;;;;;;20.01;55.15;100185.69;2084269;28;19919;-44
2022/05/10 04:29:32;;;;;;;;;;;;;;;20.01;55.22;100191.19;2085571;28;20209;-45
2022/05/10 04:30:32;;;;;;;;;;;;;;;20.02;55.20;100186.59;2084077;28;20236;-45
2022/05/10 04:31:32;;;;;;;;;;;;;;;20.02;55.23;100186.59;2084463;28;20221;-44
2022/05/10 04:32:36;;;;;;;;;;;;;;;20.02;55.16;100190.19;2084865;28;20101;-44
2022/05/10 04:33:37;;;;;;;;;;;;;;;20.02;55.11;100195.66;2084151;28;19923;-46
2022/05/10 04:34:37;;;;;;;;;;;;;;;20.02;55.12;100192.91;2084337;28;19909;-47
2022/05/10 04:35:38;;;;;;;;;;;;;;;20.01;55.28;100196.66;2085292;28;20373;-47
2022/05/10 04:36:38;;;;;;;;;;;;;;;20.02;55.20;100194.81;2084189;28;19931;-44
2022/05/10 04:37:39;;;;;;;;;;;;;;;20.01;55.18;100199.38;2077036;28;20286;-45
2022/05/10 04:38:39;;;;;;;;;;;;;;;20.02;55.36;100197.53;2074847;28;19984;-44
2022/05/10 04:42:18;;;;;;;;;;;;;;;20.01;55.28;100191.19;2085287;28;19968;-47
2022/05/10 04:43:19;;;;;;;;;;;;;;;20.01;55.36;100196.66;2084342;28;20488;-46
2022/05/10 04:44:19;;;;;;;;;;;;;;;20.01;55.27;100196.66;2082295;28;20455;-46
2022/05/10 04:45:19;;;;;;;;;;;;;;;20.00;55.23;100200.41;2084918;28;19944;-45
2022/05/10 04:46:20;;;;;;;;;;;;;;;20.00;55.25;100199.56;2083527;28;19920;-44
2022/05/10 04:47:20;;;;;;;;;;;;;;;19.99;55.44;100198.69;2084970;28;19925;-46
2022/05/10 04:48:20;;;;;;;;;;;;;;;20.00;55.46;100194.94;2084211;28;20251;-45
2022/05/10 04:49:21;;;;;;;;;;;;;;;20.00;55.44;100200.41;2084228;28;19966;-47
2022/05/10 04:50:21;;;;;;;;;;;;;;;19.99;55.31;100203.28;2084589;28;20398;-47
2022/05/10 04:51:22;;;;;;;;;;;;;;;19.99;55.38;100206.91;2075339;28;19916;-44
2022/05/10 04:52:22;;;;;;;;;;;;;;;19.98;55.35;100207.91;2072746;28;19917;-45
2022/05/10 04:53:22;;;;;;;;;;;;;;;19.98;55.42;100205.16;2074665;28;19923;-46
2022/05/10 04:54:23;;;;;;;;;;;;;;;19.99;55.32;100215.13;2075557;28;19995;-47
2022/05/10 04:55:23;;;;;;;;;;;;;;;19.98;55.34;100213.38;2084705;28;20050;-45
2022/05/10 04:56:23;;;;;;;;;;;;;;;19.98;55.40;100213.38;2083283;28;19927;-46
2022/05/10 04:57:24;;;;;;;;;;;;;;;19.98;55.50;100207.06;2082115;28;20552;-46
2022/05/10 04:58:24;;;;;;;;;;;;;;;19.98;55.40;100207.91;2085862;28;19927;-45
2022/05/10 04:59:24;;;;;;;;;;;;;;;19.98;55.48;100207.91;2086212;28;19916;-46
2022/05/10 05:00:26;;;;;;;;;;;;;;;19.99;55.47;100214.22;2083016;28;21961;-45
2022/05/10 05:01:27;;;;;;;;;;;;;;;19.98;55.32;100213.38;2083365;28;20353;-46
2022/05/10 05:02:28;;;;;;;;;;;;;;;19.98;55.30;100213.38;2085504;28;20011;-45
2022/05/10 05:03:28;;;;;;;;;;;;;;;19.98;55.29;100207.91;2083822;28;20334;-45
2022/05/10 05:04:28;;;;;;;;;;;;;;;19.98;55.34;100209.78;2083752;28;19923;-45
2022/05/10 05:05:28;;;;;;;;;;;;;;;19.98;55.28;100216.13;2075601;28;19909;-45
2022/05/10 05:06:29;;;;;;;;;;;;;;;19.99;55.39;100209.66;2071669;28;20270;-46
2022/05/10 05:07:30;;;;;;;;;;;;;;;19.99;55.34;100209.66;2085072;28;19909;-45
2022/05/10 05:08:30;;;;;;;;;;;;;;;19.98;55.21;100207.91;2073041;28;19972;-45
2022/05/10 05:09:30;;;;;;;;;;;;;;;19.98;55.18;100202.44;2074230;28;19917;-45
2022/05/10 05:10:31;;;;;;;;;;;;;;;19.98;55.37;100207.91;2086986;28;19916;-46
2022/05/10 05:11:31;;;;;;;;;;;;;;;19.98;55.41;100205.16;2082912;28;19916;-45
2022/05/10 05:12:32;;;;;;;;;;;;;;;19.98;55.33;100207.91;2088474;28;20062;-45
2022/05/10 05:13:33;;;;;;;;;;;;;;;19.98;55.20;100207.91;2083955;28;19916;-47
2022/05/10 05:14:33;;;;;;;;;;;;;;;19.99;55.28;100209.66;2083743;28;19917;-45
2022/05/10 05:15:34;;;;;;;;;;;;;;;19.98;55.30;100207.91;2075411;28;19928;-47
2022/05/10 05:16:34;;;;;;;;;;;;;;;19.99;55.45;100212.38;2074789;28;20228;-45
2022/05/10 05:17:34;;;;;;;;;;;;;;;19.99;55.32;100206.91;2084327;28;19921;-45
2022/05/10 05:18:34;;;;;;;;;;;;;;;19.98;55.46;100207.91;2083965;28;19923;-46
2022/05/10 05:19:35;;;;;;;;;;;;;;;19.98;55.46;100213.38;2082890;28;20699;-46
2022/05/10 05:20:38;;;;;;;;;;;;;;;19.97;55.37;100217.16;2084788;28;20028;-45
2022/05/10 05:21:38;;;;;;;;;;;;;;;19.98;55.44;100218.00;2084661;28;19922;-45
2022/05/10 05:22:39;;;;;;;;;;;;;;;19.97;55.40;100208.94;2081210;28;19917;-46
2022/05/10 05:23:39;;;;;;;;;;;;;;;19.97;55.41;100214.41;2075401;28;19908;-46
2022/05/10 05:24:40;;;;;;;;;;;;;;;19.97;55.56;100210.81;2084830;28;19912;-44
2022/05/10 05:25:41;;;;;;;;;;;;;;;19.96;55.46;100209.94;2074225;28;19936;-45
2022/05/10 05:26:42;;;;;;;;;;;;;;;19.96;55.50;100206.34;2075856;28;20043;-46
2022/05/10 05:27:42;;;;;;;;;;;;;;;19.96;55.45;100214.53;2086452;28;20496;-44
2022/05/10 05:28:43;;;;;;;;;;;;;;;19.96;55.52;100214.53;2083997;28;19966;-44